Fairview Hill, Kentucky
Current Conditions -  °F | °C
As of 12:51 AM on Friday 19 Dec 2014 (Local Time) from KHTS Reporting Station
Overcast Overcast  
Wind Chill: 29°   Ceiling: 2200
Heat Index: 29°   Visibility: 10mi
Dew Point: 22°   Wind: 0mph
Humidity: 75%   Direction: NA
Pressure: 30.22"   Gusts: NA
Location:  38.234°N, 82.9152°W
Report Text: KHTS 190551Z 00000KT 10SM BKN022 OVC060 M02/M06 A3022 RMK AO2 SLP239 T10171056 11011 21017 50004
Loading
Personal Weather Stations






























Interactive Weather Map New forecast layout! Learn more

10-Day Weather Forecast

Advertisements
Track Severe Weather on mobile